sensor_id;sensor_type;location;lat;lon;timestamp;pressure;altitude;pressure_sealevel;temperature;humidity
51928;BME280;37953;52.806;18.270;2023-05-20T00:01:50;101777.09;;;13.09;100.00
51928;BME280;37953;52.806;18.270;2023-05-20T00:04:17;101778.84;;;13.10;100.00
51928;BME280;37953;52.806;18.270;2023-05-20T00:06:46;101785.84;;;13.13;100.00
51928;BME280;37953;52.806;18.270;2023-05-20T00:09:12;101777.97;;;13.10;100.00
51928;BME280;37953;52.806;18.270;2023-05-20T00:11:39;101785.84;;;13.13;100.00
51928;BME280;37953;52.806;18.270;2023-05-20T00:14:06;101786.69;;;13.12;100.00
51928;BME280;37953;52.806;18.270;2023-05-20T00:16:38;101784.09;;;13.13;100.00
51928;BME280;37953;52.806;18.270;2023-05-20T00:19:05;101780.59;;;13.11;100.00
51928;BME280;37953;52.806;18.270;2023-05-20T00:21:32;101771.84;;;13.06;100.00
51928;BME280;37953;52.806;18.270;2023-05-20T00:23:59;101777.06;;;13.06;100.00
51928;BME280;37953;52.806;18.270;2023-05-20T00:26:28;101778.81;;;13.09;100.00
51928;BME280;37953;52.806;18.270;2023-05-20T00:28:55;101784.97;;;13.12;100.00
51928;BME280;37953;52.806;18.270;2023-05-20T00:31:22;101777.09;;;13.09;100.00
51928;BME280;37953;52.806;18.270;2023-05-20T00:33:49;101777.09;;;13.09;100.00
51928;BME280;37953;52.806;18.270;2023-05-20T00:36:16;101758.72;;;13.00;100.00
51928;BME280;37953;52.806;18.270;2023-05-20T00:41:47;101772.75;;;13.10;100.00
51928;BME280;37953;52.806;18.270;2023-05-20T00:44:14;101776.22;;;13.09;100.00
51928;BME280;37953;52.806;18.270;2023-05-20T00:46:40;101778.81;;;13.09;100.00
51928;BME280;37953;52.806;18.270;2023-05-20T00:49:07;101769.25;;;13.09;100.00
51928;BME280;37953;52.806;18.270;2023-05-20T00:51:34;101770.13;;;13.10;100.00
51928;BME280;37953;52.806;18.270;2023-05-20T00:54:01;101766.63;;;13.08;100.00
51928;BME280;37953;52.806;18.270;2023-05-20T00:56:28;101766.63;;;13.08;100.00
51928;BME280;37953;52.806;18.270;2023-05-20T00:58:56;101771.00;;;13.09;100.00
51928;BME280;37953;52.806;18.270;2023-05-20T01:01:23;101771.84;;;13.06;100.00
51928;BME280;37953;52.806;18.270;2023-05-20T01:03:51;101777.06;;;13.06;100.00
51928;BME280;37953;52.806;18.270;2023-05-20T01:06:17;101774.41;;;13.04;100.00
51928;BME280;37953;52.806;18.270;2023-05-20T01:14:53;101765.75;;;13.07;100.00
51928;BME280;37953;52.806;18.270;2023-05-20T01:17:25;101765.72;;;13.06;100.00
51928;BME280;37953;52.806;18.270;2023-05-20T01:19:54;101767.44;;;13.03;100.00
51928;BME280;37953;52.806;18.270;2023-05-20T01:22:27;101764.84;;;13.05;100.00
51928;BME280;37953;52.806;18.270;2023-05-20T01:24:54;101766.59;;;13.04;100.00
51928;BME280;37953;52.806;18.270;2023-05-20T01:27:26;101768.34;;;13.04;100.00
51928;BME280;37953;52.806;18.270;2023-05-20T01:29:56;101760.47;;;13.02;100.00
51928;BME280;37953;52.806;18.270;2023-05-20T01:32:27;101766.56;;;13.03;100.00
51928;BME280;37953;52.806;18.270;2023-05-20T01:34:58;101757.81;;;12.99;100.00
51928;BME280;37953;52.806;18.270;2023-05-20T01:37:29;101758.72;;;13.00;100.00
51928;BME280;37953;52.806;18.270;2023-05-20T01:39:57;101753.44;;;12.97;100.00
51928;BME280;37953;52.806;18.270;2023-05-20T01:42:25;101751.69;;;12.97;100.00
51928;BME280;37953;52.806;18.270;2023-05-20T01:44:56;101750.00;;;12.98;100.00
51928;BME280;37953;52.806;18.270;2023-05-20T01:47:24;101745.63;;;12.95;100.00
51928;BME280;37953;52.806;18.270;2023-05-20T01:49:51;101757.78;;;12.96;100.00
51928;BME280;37953;52.806;18.270;2023-05-20T01:52:20;101749.91;;;12.92;100.00
51928;BME280;37953;52.806;18.270;2023-05-20T01:54:46;101755.16;;;12.93;100.00
51928;BME280;37953;52.806;18.270;2023-05-20T01:57:22;101754.25;;;12.93;100.00
51928;BME280;37953;52.806;18.270;2023-05-20T01:59:55;101752.53;;;12.95;100.00
51928;BME280;37953;52.806;18.270;2023-05-20T02:02:23;101748.16;;;12.92;100.00
51928;BME280;37953;52.806;18.270;2023-05-20T02:04:50;101753.38;;;12.92;100.00
51928;BME280;37953;52.806;18.270;2023-05-20T02:07:24;101754.25;;;12.91;100.00
51928;BME280;37953;52.806;18.270;2023-05-20T02:09:51;101750.78;;;12.92;100.00
51928;BME280;37953;52.806;18.270;2023-05-20T02:12:17;101752.47;;;12.90;100.00
51928;BME280;37953;52.806;18.270;2023-05-20T02:14:45;101755.09;;;12.90;100.00
51928;BME280;37953;52.806;18.270;2023-05-20T02:17:13;101754.22;;;12.90;100.00
51928;BME280;37953;52.806;18.270;2023-05-20T02:19:42;101744.63;;;12.87;100.00
51928;BME280;37953;52.806;18.270;2023-05-20T02:22:22;101748.09;;;12.88;100.00
51928;BME280;37953;52.806;18.270;2023-05-20T02:24:49;101749.84;;;12.87;100.00
51928;BME280;37953;52.806;18.270;2023-05-20T02:27:15;101746.34;;;12.85;100.00
51928;BME280;37953;52.806;18.270;2023-05-20T02:29:43;101739.38;;;12.86;100.00
51928;BME280;37953;52.806;18.270;2023-05-20T02:32:09;101740.25;;;12.86;100.00
51928;BME280;37953;52.806;18.270;2023-05-20T02:34:36;101742.88;;;12.88;100.00
51928;BME280;37953;52.806;18.270;2023-05-20T02:37:03;101740.31;;;12.89;100.00
51928;BME280;37953;52.806;18.270;2023-05-20T02:39:33;101741.31;;;13.00;100.00
51928;BME280;37953;52.806;18.270;2023-05-20T02:42:00;101745.56;;;12.92;100.00
51928;BME280;37953;52.806;18.270;2023-05-20T02:44:27;101743.78;;;12.90;100.00
51928;BME280;37953;52.806;18.270;2023-05-20T02:46:53;101748.13;;;12.89;100.00
51928;BME280;37953;52.806;18.270;2023-05-20T02:49:26;101748.94;;;12.87;100.00
51928;BME280;37953;52.806;18.270;2023-05-20T02:51:53;101752.44;;;12.86;100.00
51928;BME280;37953;52.806;18.270;2023-05-20T02:54:20;101738.50;;;12.83;100.00
51928;BME280;37953;52.806;18.270;2023-05-20T02:56:46;101748.94;;;12.85;100.00
51928;BME280;37953;52.806;18.270;2023-05-20T02:59:12;101750.69;;;12.86;100.00
51928;BME280;37953;52.806;18.270;2023-05-20T03:01:39;101751.56;;;12.85;100.00
51928;BME280;37953;52.806;18.270;2023-05-20T03:04:17;101757.66;;;12.86;100.00
51928;BME280;37953;52.806;18.270;2023-05-20T03:06:45;101747.22;;;12.86;100.00
51928;BME280;37953;52.806;18.270;2023-05-20T03:09:11;101742.00;;;12.86;100.00
51928;BME280;37953;52.806;18.270;2023-05-20T03:11:39;101739.34;;;12.84;100.00
51928;BME280;37953;52.806;18.270;2023-05-20T03:14:06;101746.34;;;12.85;100.00
51928;BME280;37953;52.806;18.270;2023-05-20T03:16:32;101756.78;;;12.85;100.00
51928;BME280;37953;52.806;18.270;2023-05-20T03:19:00;101752.44;;;12.86;100.00
51928;BME280;37953;52.806;18.270;2023-05-20T03:21:27;101736.72;;;12.82;100.00
51928;BME280;37953;52.806;18.270;2023-05-20T03:24:00;101751.56;;;12.87;100.00
51928;BME280;37953;52.806;18.270;2023-05-20T03:26:28;101746.34;;;12.85;100.00
51928;BME280;37953;52.806;18.270;2023-05-20T03:28:55;101755.94;;;12.88;100.00
51928;BME280;37953;52.806;18.270;2023-05-20T03:31:21;101759.38;;;12.85;100.00
51928;BME280;37953;52.806;18.270;2023-05-20T03:33:48;101758.44;;;12.81;100.00
51928;BME280;37953;52.806;18.270;2023-05-20T03:36:16;101766.31;;;12.84;100.00
51928;BME280;37953;52.806;18.270;2023-05-20T03:38:46;101773.31;;;12.87;100.00
51928;BME280;37953;52.806;18.270;2023-05-20T03:41:35;101767.22;;;12.88;100.00
51928;BME280;37953;52.806;18.270;2023-05-20T03:44:10;101773.31;;;12.89;100.00
51928;BME280;37953;52.806;18.270;2023-05-20T03:46:51;101773.31;;;12.89;100.00
51928;BME280;37953;52.806;18.270;2023-05-20T03:49:18;101781.16;;;12.87;100.00
51928;BME280;37953;52.806;18.270;2023-05-20T03:51:44;101781.16;;;12.89;100.00
51928;BME280;37953;52.806;18.270;2023-05-20T03:54:11;101780.31;;;12.90;100.00
51928;BME280;37953;52.806;18.270;2023-05-20T03:56:37;101777.72;;;12.91;100.00
51928;BME280;37953;52.806;18.270;2023-05-20T03:59:10;101780.34;;;12.93;100.00
51928;BME280;37953;52.806;18.270;2023-05-20T04:01:36;101786.44;;;12.95;100.00
51928;BME280;37953;52.806;18.270;2023-05-20T04:04:02;101789.06;;;12.95;100.00
51928;BME280;37953;52.806;18.270;2023-05-20T04:06:28;101787.31;;;12.94;100.00
51928;BME280;37953;52.806;18.270;2023-05-20T04:08:54;101786.44;;;12.95;100.00
51928;BME280;37953;52.806;18.270;2023-05-20T04:11:20;101789.09;;;12.96;100.00
51928;BME280;37953;52.806;18.270;2023-05-20T04:13:46;101793.44;;;12.97;100.00
51928;BME280;37953;52.806;18.270;2023-05-20T04:16:12;101795.19;;;12.97;100.00
51928;BME280;37953;52.806;18.270;2023-05-20T04:18:38;101787.34;;;12.97;100.00
51928;BME280;37953;52.806;18.270;2023-05-20T04:21:04;101784.78;;;12.98;100.00
51928;BME280;37953;52.806;18.270;2023-05-20T04:23:30;101788.28;;;13.00;100.00
51928;BME280;37953;52.806;18.270;2023-05-20T04:25:55;101785.66;;;13.00;100.00
51928;BME280;37953;52.806;18.270;2023-05-20T04:28:27;101789.16;;;13.01;100.00
51928;BME280;37953;52.806;18.270;2023-05-20T04:30:59;101783.09;;;13.03;100.00
51928;BME280;37953;52.806;18.270;2023-05-20T04:33:27;101784.84;;;13.04;100.00
51928;BME280;37953;52.806;18.270;2023-05-20T04:35:53;101779.66;;;13.06;100.00
51928;BME280;37953;52.806;18.270;2023-05-20T04:38:28;101781.38;;;13.06;100.00
51928;BME280;37953;52.806;18.270;2023-05-20T04:40:58;101781.38;;;13.06;100.00
51928;BME280;37953;52.806;18.270;2023-05-20T04:43:25;101785.72;;;13.05;100.00
51928;BME280;37953;52.806;18.270;2023-05-20T04:45:55;101786.59;;;13.06;100.00
51928;BME280;37953;52.806;18.270;2023-05-20T04:48:21;101795.31;;;13.06;100.00
51928;BME280;37953;52.806;18.270;2023-05-20T04:50:48;101792.72;;;13.06;100.00
51928;BME280;37953;52.806;18.270;2023-05-20T04:53:17;101787.53;;;13.09;100.00
51928;BME280;37953;52.806;18.270;2023-05-20T04:55:47;101792.75;;;13.09;100.00
51928;BME280;37953;52.806;18.270;2023-05-20T04:58:19;101791.00;;;13.08;100.00
51928;BME280;37953;52.806;18.270;2023-05-20T05:00:49;101795.31;;;13.08;100.00
51928;BME280;37953;52.806;18.270;2023-05-20T05:03:16;101788.38;;;13.10;100.00
51928;BME280;37953;52.806;18.270;2023-05-20T05:05:42;101786.66;;;13.09;100.00
51928;BME280;37953;52.806;18.270;2023-05-20T05:08:09;101791.00;;;13.08;100.00
51928;BME280;37953;52.806;18.270;2023-05-20T05:10:44;101789.28;;;13.10;100.00
51928;BME280;37953;52.806;18.270;2023-05-20T05:13:11;101798.81;;;13.10;100.00
51928;BME280;37953;52.806;18.270;2023-05-20T05:15:37;101791.03;;;13.11;100.00
51928;BME280;37953;52.806;18.270;2023-05-20T05:18:03;101801.47;;;13.11;100.00
51928;BME280;37953;52.806;18.270;2023-05-20T05:20:29;101805.84;;;13.12;100.00
51928;BME280;37953;52.806;18.270;2023-05-20T05:22:54;101797.13;;;13.10;100.00
51928;BME280;37953;52.806;18.270;2023-05-20T05:25:20;101795.41;;;13.12;100.00
51928;BME280;37953;52.806;18.270;2023-05-20T05:27:46;101788.44;;;13.11;100.00
51928;BME280;37953;52.806;18.270;2023-05-20T05:30:15;101788.44;;;13.13;100.00
51928;BME280;37953;52.806;18.270;2023-05-20T05:32:42;101784.09;;;13.13;100.00
51928;BME280;37953;52.806;18.270;2023-05-20T05:35:08;101786.75;;;13.15;100.00
51928;BME280;37953;52.806;18.270;2023-05-20T05:37:34;101788.47;;;13.16;100.00
51928;BME280;37953;52.806;18.270;2023-05-20T05:40:02;101787.63;;;13.17;100.00
51928;BME280;37953;52.806;18.270;2023-05-20T05:42:29;101783.31;;;13.19;100.00
51928;BME280;37953;52.806;18.270;2023-05-20T05:44:55;101790.25;;;13.18;100.00
51928;BME280;37953;52.806;18.270;2023-05-20T05:47:20;101794.63;;;13.19;100.00
51928;BME280;37953;52.806;18.270;2023-05-20T05:49:46;101795.53;;;13.21;100.00
51928;BME280;37953;52.806;18.270;2023-05-20T05:52:12;101791.16;;;13.22;100.00
51928;BME280;37953;52.806;18.270;2023-05-20T05:54:38;101785.13;;;13.23;100.00
51928;BME280;37953;52.806;18.270;2023-05-20T05:57:04;101790.31;;;13.24;100.00
51928;BME280;37953;52.806;18.270;2023-05-20T05:59:32;101798.19;;;13.26;100.00
51928;BME280;37953;52.806;18.270;2023-05-20T06:01:58;101798.25;;;13.29;100.00
51928;BME280;37953;52.806;18.270;2023-05-20T06:04:23;101794.81;;;13.32;100.00
51928;BME280;37953;52.806;18.270;2023-05-20T06:06:50;101788.72;;;13.33;100.00
51928;BME280;37953;52.806;18.270;2023-05-20T06:09:15;101787.88;;;13.34;100.00
51928;BME280;37953;52.806;18.270;2023-05-20T06:11:42;101787.03;;;13.36;100.00
51928;BME280;37953;52.806;18.270;2023-05-20T06:14:08;101789.69;;;13.38;100.00
51928;BME280;37953;52.806;18.270;2023-05-20T06:16:34;101785.34;;;13.41;100.00
51928;BME280;37953;52.806;18.270;2023-05-20T06:19:01;101789.72;;;13.41;100.00
51928;BME280;37953;52.806;18.270;2023-05-20T06:21:27;101792.38;;;13.46;100.00
51928;BME280;37953;52.806;18.270;2023-05-20T06:23:52;101787.19;;;13.47;100.00
51928;BME280;37953;52.806;18.270;2023-05-20T06:26:19;101790.72;;;13.51;100.00
51928;BME280;37953;52.806;18.270;2023-05-20T06:28:45;101787.25;;;13.53;100.00
51928;BME280;37953;52.806;18.270;2023-05-20T06:31:18;101788.16;;;13.55;100.00
51928;BME280;37953;52.806;18.270;2023-05-20T06:33:44;101790.75;;;13.55;100.00
51928;BME280;37953;52.806;18.270;2023-05-20T06:36:10;101775.09;;;13.58;100.00
51928;BME280;37953;52.806;18.270;2023-05-20T06:38:36;101783.84;;;13.59;100.00
51928;BME280;37953;52.806;18.270;2023-05-20T06:41:03;101784.75;;;13.61;100.00
51928;BME280;37953;52.806;18.270;2023-05-20T06:43:28;101778.66;;;13.63;100.00
51928;BME280;37953;52.806;18.270;2023-05-20T06:45:55;101774.34;;;13.66;100.00
51928;BME280;37953;52.806;18.270;2023-05-20T06:48:21;101776.94;;;13.67;100.00
51928;BME280;37953;52.806;18.270;2023-05-20T06:50:47;101778.75;;;13.70;100.00
51928;BME280;37953;52.806;18.270;2023-05-20T06:53:13;101780.47;;;13.71;100.00
51928;BME280;37953;52.806;18.270;2023-05-20T06:55:40;101777.91;;;13.74;100.00
51928;BME280;37953;52.806;18.270;2023-05-20T06:58:06;101780.53;;;13.75;100.00
51928;BME280;37953;52.806;18.270;2023-05-20T07:00:32;101782.28;;;13.76;100.00
51928;BME280;37953;52.806;18.270;2023-05-20T07:02:58;101782.31;;;13.79;100.00
51928;BME280;37953;52.806;18.270;2023-05-20T07:05:24;101784.97;;;13.82;100.00
51928;BME280;37953;52.806;18.270;2023-05-20T07:07:50;101778.88;;;13.85;100.00
51928;BME280;37953;52.806;18.270;2023-05-20T07:10:16;101776.31;;;13.87;100.00
51928;BME280;37953;52.806;18.270;2023-05-20T07:12:42;101781.53;;;13.90;100.00
51928;BME280;37953;52.806;18.270;2023-05-20T07:15:09;101786.78;;;13.91;100.00
51928;BME280;37953;52.806;18.270;2023-05-20T07:17:35;101774.59;;;13.92;100.00
51928;BME280;37953;52.806;18.270;2023-05-20T07:20:04;101773.78;;;13.96;100.00
51928;BME280;37953;52.806;18.270;2023-05-20T07:22:32;101770.31;;;13.98;100.00
51928;BME280;37953;52.806;18.270;2023-05-20T07:25:00;101769.44;;;14.01;100.00
51928;BME280;37953;52.806;18.270;2023-05-20T07:27:26;101768.63;;;14.03;100.00
51928;BME280;37953;52.806;18.270;2023-05-20T07:29:52;101770.38;;;14.06;100.00
51928;BME280;37953;52.806;18.270;2023-05-20T07:32:18;101768.66;;;14.08;100.00
51928;BME280;37953;52.806;18.270;2023-05-20T07:34:44;101766.06;;;14.10;100.00
51928;BME280;37953;52.806;18.270;2023-05-20T07:37:10;101773.94;;;14.13;100.00
51928;BME280;37953;52.806;18.270;2023-05-20T07:39:37;101770.47;;;14.15;100.00
51928;BME280;37953;52.806;18.270;2023-05-20T07:42:03;101766.09;;;14.16;100.00
51928;BME280;37953;52.806;18.270;2023-05-20T07:44:29;101760.91;;;14.17;100.00
51928;BME280;37953;52.806;18.270;2023-05-20T07:46:55;101754.81;;;14.17;100.00
51928;BME280;37953;52.806;18.270;2023-05-20T07:49:21;101763.56;;;14.23;100.00
51928;BME280;37953;52.806;18.270;2023-05-20T07:51:47;101756.63;;;14.25;100.00
51928;BME280;37953;52.806;18.270;2023-05-20T07:54:14;101751.41;;;14.29;100.00
51928;BME280;37953;52.806;18.270;2023-05-20T07:56:40;101741.84;;;14.32;100.00
51928;BME280;37953;52.806;18.270;2023-05-20T07:59:06;101746.25;;;14.36;100.00
51928;BME280;37953;52.806;18.270;2023-05-20T08:01:32;101741.91;;;14.40;100.00
51928;BME280;37953;52.806;18.270;2023-05-20T08:03:59;101741.06;;;14.44;100.00
51928;BME280;37953;52.806;18.270;2023-05-20T08:06:25;101741.97;;;14.49;100.00
51928;BME280;37953;52.806;18.270;2023-05-20T08:08:51;101734.16;;;14.54;100.00
51928;BME280;37953;52.806;18.270;2023-05-20T08:11:24;101732.50;;;14.59;100.00
51928;BME280;37953;52.806;18.270;2023-05-20T08:13:50;101736.88;;;14.61;100.00
51928;BME280;37953;52.806;18.270;2023-05-20T08:16:16;101739.50;;;14.66;100.00
51928;BME280;37953;52.806;18.270;2023-05-20T08:18:42;101739.53;;;14.71;100.00
51928;BME280;37953;52.806;18.270;2023-05-20T08:21:11;101740.44;;;14.76;100.00
51928;BME280;37953;52.806;18.270;2023-05-20T08:23:37;101732.59;;;14.79;100.00
51928;BME280;37953;52.806;18.270;2023-05-20T08:26:03;101736.13;;;14.82;100.00
51928;BME280;37953;52.806;18.270;2023-05-20T08:28:29;101729.16;;;14.88;100.00
51928;BME280;37953;52.806;18.270;2023-05-20T08:31:03;101726.59;;;14.92;100.00
51928;BME280;37953;52.806;18.270;2023-05-20T08:33:29;101720.50;;;14.98;100.00
51928;BME280;37953;52.806;18.270;2023-05-20T08:35:54;101727.50;;;15.02;100.00
51928;BME280;37953;52.806;18.270;2023-05-20T08:38:21;101725.78;;;15.09;100.00
51928;BME280;37953;52.806;18.270;2023-05-20T08:40:54;101724.06;;;15.14;100.00
51928;BME280;37953;52.806;18.270;2023-05-20T08:43:27;101722.34;;;15.20;100.00
51928;BME280;37953;52.806;18.270;2023-05-20T08:45:55;101717.97;;;15.25;100.00
51928;BME280;37953;52.806;18.270;2023-05-20T08:48:25;101717.13;;;15.31;100.00
51928;BME280;37953;52.806;18.270;2023-05-20T08:50:52;101711.91;;;15.37;100.00
51928;BME280;37953;52.806;18.270;2023-05-20T08:53:22;101713.66;;;15.43;100.00
51928;BME280;37953;52.806;18.270;2023-05-20T08:55:55;101713.69;;;15.51;100.00
51928;BME280;37953;52.806;18.270;2023-05-20T08:58:30;101708.47;;;15.57;100.00
51928;BME280;37953;52.806;18.270;2023-05-20T09:00:57;101707.59;;;15.61;100.00
51928;BME280;37953;52.806;18.270;2023-05-20T09:03:25;101707.59;;;15.64;100.00
51928;BME280;37953;52.806;18.270;2023-05-20T09:05:52;101706.75;;;15.71;100.00
51928;BME280;37953;52.806;18.270;2023-05-20T09:08:22;101706.78;;;15.76;100.00
51928;BME280;37953;52.806;18.270;2023-05-20T09:10:50;101712.06;;;15.83;100.00
51928;BME280;37953;52.806;18.270;2023-05-20T09:13:17;101714.66;;;15.88;100.00
51928;BME280;37953;52.806;18.270;2023-05-20T09:15:43;101706.81;;;15.93;100.00
51928;BME280;37953;52.806;18.270;2023-05-20T09:18:09;101702.44;;;15.98;100.00
51928;BME280;37953;52.806;18.270;2023-05-20T09:20:45;101699.81;;;16.04;100.00
51928;BME280;37953;52.806;18.270;2023-05-20T09:23:11;101703.31;;;16.07;100.00
51928;BME280;37953;52.806;18.270;2023-05-20T09:25:37;101696.31;;;16.11;100.00
51928;BME280;37953;52.806;18.270;2023-05-20T09:28:05;101692.81;;;16.14;100.00
51928;BME280;37953;52.806;18.270;2023-05-20T09:30:31;101697.19;;;16.16;100.00
51928;BME280;37953;52.806;18.270;2023-05-20T09:32:59;101688.44;;;16.22;100.00
51928;BME280;37953;52.806;18.270;2023-05-20T09:35:26;101691.06;;;16.28;100.00
51928;BME280;37953;52.806;18.270;2023-05-20T09:37:55;101679.69;;;16.37;100.00
51928;BME280;37953;52.806;18.270;2023-05-20T09:40:26;101673.53;;;16.42;100.00
51928;BME280;37953;52.806;18.270;2023-05-20T09:43:05;101680.53;;;16.49;100.00
51928;BME280;37953;52.806;18.270;2023-05-20T09:45:36;101677.03;;;16.55;100.00
51928;BME280;37953;52.806;18.270;2023-05-20T09:48:03;101674.41;;;16.60;100.00
51928;BME280;37953;52.806;18.270;2023-05-20T09:50:30;101671.75;;;16.66;100.00
51928;BME280;37953;52.806;18.270;2023-05-20T09:53:01;101670.88;;;16.70;100.00
51928;BME280;37953;52.806;18.270;2023-05-20T09:55:28;101670.84;;;16.72;100.00
51928;BME280;37953;52.806;18.270;2023-05-20T09:57:55;101669.94;;;16.74;100.00
51928;BME280;37953;52.806;18.270;2023-05-20T10:00:21;101668.19;;;16.76;100.00
51928;BME280;37953;52.806;18.270;2023-05-20T10:02:50;101667.34;;;16.79;100.00
51928;BME280;37953;52.806;18.270;2023-05-20T10:05:20;101658.59;;;16.81;100.00
51928;BME280;37953;52.806;18.270;2023-05-20T10:08:11;101657.72;;;16.85;100.00
51928;BME280;37953;52.806;18.270;2023-05-20T10:11:15;101658.59;;;16.87;100.00
51928;BME280;37953;52.806;18.270;2023-05-20T10:15:09;101661.19;;;16.92;100.00
51928;BME280;37953;52.806;18.270;2023-05-20T10:17:33;101657.66;;;16.95;100.00
51928;BME280;37953;52.806;18.270;2023-05-20T10:20:06;101648.03;;;16.95;100.00
51928;BME280;37953;52.806;18.270;2023-05-20T10:22:33;101649.75;;;16.99;100.00
51928;BME280;37953;52.806;18.270;2023-05-20T10:25:04;101648.00;;;17.03;100.00
51928;BME280;37953;52.806;18.270;2023-05-20T10:27:45;101647.09;;;17.05;100.00
51928;BME280;37953;52.806;18.270;2023-05-20T10:30:22;101643.59;;;17.08;100.00
51928;BME280;37953;52.806;18.270;2023-05-20T10:32:51;101648.81;;;17.14;100.00
51928;BME280;37953;52.806;18.270;2023-05-20T10:35:26;101653.16;;;17.20;100.00
51928;BME280;37953;52.806;18.270;2023-05-20T10:37:54;101649.63;;;17.25;100.00
51928;BME280;37953;52.806;18.270;2023-05-20T10:40:27;101639.13;;;17.25;100.00
51928;BME280;37953;52.806;18.270;2023-05-20T10:42:54;101639.09;;;17.28;100.00
51928;BME280;37953;52.806;18.270;2023-05-20T10:45:55;101639.94;;;17.37;100.00
51928;BME280;37953;52.806;18.270;2023-05-20T10:48:30;101633.81;;;17.38;100.00
51928;BME280;37953;52.806;18.270;2023-05-20T10:51:01;101627.66;;;17.40;100.00
51928;BME280;37953;52.806;18.270;2023-05-20T10:53:40;101633.69;;;17.50;100.00
51928;BME280;37953;52.806;18.270;2023-05-20T10:56:24;101627.50;;;17.59;100.00
51928;BME280;37953;52.806;18.270;2023-05-20T10:58:51;101631.81;;;17.69;100.00
51928;BME280;37953;52.806;18.270;2023-05-20T11:01:21;101628.31;;;17.72;100.00
51928;BME280;37953;52.806;18.270;2023-05-20T11:03:48;101627.34;;;17.76;100.00
51928;BME280;37953;52.806;18.270;2023-05-20T11:06:16;101627.34;;;17.77;100.00
51928;BME280;37953;52.806;18.270;2023-05-20T11:08:43;101632.59;;;17.80;100.00
51928;BME280;37953;52.806;18.270;2023-05-20T11:11:10;101635.22;;;17.83;100.00
51928;BME280;37953;52.806;18.270;2023-05-20T11:13:37;101637.84;;;17.83;100.00
51928;BME280;37953;52.806;18.270;2023-05-20T11:16:03;101625.56;;;17.84;100.00
51928;BME280;37953;52.806;18.270;2023-05-20T11:18:30;101629.91;;;17.88;100.00
51928;BME280;37953;52.806;18.270;2023-05-20T11:20:58;101620.25;;;17.90;100.00
51928;BME280;37953;52.806;18.270;2023-05-20T11:23:26;101617.63;;;17.90;100.00
51928;BME280;37953;52.806;18.270;2023-05-20T11:25:54;101611.41;;;17.99;100.00
51928;BME280;37953;52.806;18.270;2023-05-20T11:28:21;101611.34;;;18.08;100.00
51928;BME280;37953;52.806;18.270;2023-05-20T11:30:48;101602.53;;;18.12;100.00
51928;BME280;37953;52.806;18.270;2023-05-20T11:33:15;101594.53;;;18.20;100.00
51928;BME280;37953;52.806;18.270;2023-05-20T11:35:52;101599.75;;;18.24;100.00
51928;BME280;37953;52.806;18.270;2023-05-20T11:38:24;101594.47;;;18.26;100.00
51928;BME280;37953;52.806;18.270;2023-05-20T11:40:52;101595.31;;;18.29;100.00
51928;BME280;37953;52.806;18.270;2023-05-20T11:43:19;101599.66;;;18.34;100.00
51928;BME280;37953;52.806;18.270;2023-05-20T11:45:54;101590.88;;;18.36;100.00
51928;BME280;37953;52.806;18.270;2023-05-20T11:48:20;101596.06;;;18.39;100.00
51928;BME280;37953;52.806;18.270;2023-05-20T11:50:47;101591.66;;;18.43;100.00
51928;BME280;37953;52.806;18.270;2023-05-20T11:53:17;101591.59;;;18.49;100.00
51928;BME280;37953;52.806;18.270;2023-05-20T11:58:24;101586.25;;;18.54;100.00
51928;BME280;37953;52.806;18.270;2023-05-20T12:00:50;101587.09;;;18.59;100.00
51928;BME280;37953;52.806;18.270;2023-05-20T12:03:17;101587.03;;;18.65;100.00
51928;BME280;37953;52.806;18.270;2023-05-20T12:05:43;101586.97;;;18.68;100.00
51928;BME280;37953;52.806;18.270;2023-05-20T12:08:09;101586.03;;;18.72;100.00
51928;BME280;37953;52.806;18.270;2023-05-20T12:10:35;101586.91;;;18.72;100.00
51928;BME280;37953;52.806;18.270;2023-05-20T12:13:04;101582.47;;;18.78;100.00
51928;BME280;37953;52.806;18.270;2023-05-20T12:15:40;101592.84;;;18.90;100.00
51928;BME280;37953;52.806;18.270;2023-05-20T12:18:06;101586.63;;;18.94;100.00
51928;BME280;37953;52.806;18.270;2023-05-20T12:20:33;101574.41;;;18.90;100.00
51928;BME280;37953;52.806;18.270;2023-05-20T12:23:00;101584.91;;;18.93;100.00
51928;BME280;37953;52.806;18.270;2023-05-20T12:25:26;101583.13;;;18.95;100.00
51928;BME280;37953;52.806;18.270;2023-05-20T12:27:52;101575.16;;;18.98;100.00
51928;BME280;37953;52.806;18.270;2023-05-20T12:30:20;101576.00;;;19.02;100.00
51928;BME280;37953;52.806;18.270;2023-05-20T12:32:47;101568.94;;;19.04;100.00
51928;BME280;37953;52.806;18.270;2023-05-20T12:35:16;101577.69;;;19.06;100.00
51928;BME280;37953;52.806;18.270;2023-05-20T12:37:43;101561.88;;;19.07;100.00
51928;BME280;37953;52.806;18.270;2023-05-20T12:40:15;101572.34;;;19.14;100.00
51928;BME280;37953;52.806;18.270;2023-05-20T12:42:43;101576.69;;;19.15;100.00
51928;BME280;37953;52.806;18.270;2023-05-20T12:45:09;101562.56;;;19.19;100.00
51928;BME280;37953;52.806;18.270;2023-05-20T12:47:35;101566.06;;;19.19;100.00
51928;BME280;37953;52.806;18.270;2023-05-20T12:50:02;101561.66;;;19.20;100.00